createdAt,value
2023-02-15T00:00:44.487Z,67.71
2023-02-15T00:01:43.901Z,68.01
2023-02-15T00:02:43.841Z,68.10
2023-02-15T00:03:43.811Z,68.30
2023-02-15T00:04:44.716Z,68.30
2023-02-15T00:05:43.731Z,68.20
2023-02-15T00:06:43.852Z,68.30
2023-02-15T00:07:43.823Z,68.37
2023-02-15T00:08:44.360Z,68.27
2023-02-15T00:09:43.995Z,68.46
2023-02-15T00:10:43.762Z,68.27
2023-02-15T00:11:44.381Z,68.17
2023-02-15T00:12:43.667Z,67.87
2023-02-15T00:13:43.685Z,67.77
2023-02-15T00:14:43.776Z,67.57
2023-02-15T00:15:43.970Z,67.57
2023-02-15T00:16:43.771Z,67.77
2023-02-15T00:17:44.499Z,66.78
2023-02-15T00:18:43.710Z,67.08
2023-02-15T00:19:43.693Z,67.61
2023-02-15T00:20:43.596Z,67.71
2023-02-15T00:21:43.691Z,67.90
2023-02-15T00:22:44.458Z,67.61
2023-02-15T00:23:44.361Z,67.90
2023-02-15T00:24:43.552Z,67.80
2023-02-15T00:25:43.553Z,67.71
2023-02-15T00:26:43.561Z,68.10
2023-02-15T00:27:43.776Z,68.30
2023-02-15T00:28:43.671Z,68.50
2023-02-15T00:29:44.508Z,68.20
2023-02-15T00:30:43.666Z,68.04
2023-02-15T00:31:43.586Z,68.33
2023-02-15T00:32:43.600Z,68.43
2023-02-15T00:33:43.711Z,68.24
2023-02-15T00:34:44.032Z,68.24
2023-02-15T00:35:43.416Z,68.43
2023-02-15T00:36:44.137Z,68.53
2023-02-15T00:37:44.560Z,68.53
2023-02-15T00:38:43.655Z,68.73
2023-02-15T00:39:43.443Z,68.73
2023-02-15T00:40:44.260Z,68.63
2023-02-15T00:41:44.891Z,68.13
2023-02-15T00:42:43.421Z,68.43
2023-02-15T00:43:43.475Z,68.13
2023-02-15T00:44:43.501Z,68.53
2023-02-15T00:45:43.544Z,68.73
2023-02-15T00:46:43.607Z,68.53
2023-02-15T00:47:43.354Z,68.86
2023-02-15T00:48:43.339Z,69.16
2023-02-15T00:49:44.324Z,69.46
2023-02-15T00:50:43.616Z,69.76
2023-02-15T00:51:43.534Z,69.65
2023-02-15T00:52:43.593Z,69.85
2023-02-15T00:53:43.233Z,69.76
2023-02-15T00:54:43.436Z,69.76
2023-02-15T00:55:43.404Z,69.56
2023-02-15T00:56:43.464Z,69.56
2023-02-15T00:57:43.318Z,69.26
2023-02-15T00:58:43.877Z,69.76
2023-02-15T00:59:43.163Z,69.69
2023-02-15T01:00:43.281Z,69.99
2023-02-15T01:01:43.500Z,70.29
2023-02-15T01:02:45.741Z,70.62
2023-02-15T01:03:43.300Z,70.52
2023-02-15T01:04:43.274Z,70.81
2023-02-15T01:05:43.213Z,70.92
2023-02-15T01:06:43.425Z,70.62
2023-02-15T01:07:43.109Z,70.92
2023-02-15T01:08:45.082Z,70.92
2023-02-15T01:09:43.543Z,70.81
2023-02-15T01:10:43.330Z,70.72
2023-02-15T01:11:43.592Z,70.32
2023-02-15T01:12:43.147Z,70.12
2023-02-15T01:13:43.159Z,70.62
2023-02-15T01:14:43.882Z,70.32
2023-02-15T01:15:44.073Z,70.42
2023-02-15T01:16:43.277Z,70.42
2023-02-15T01:17:42.983Z,70.81
2023-02-15T01:18:43.201Z,71.25
2023-02-15T01:19:43.003Z,70.95
2023-02-15T01:20:45.294Z,71.05
2023-02-15T01:21:43.320Z,71.25
2023-02-15T01:22:44.958Z,71.45
2023-02-15T01:23:42.990Z,70.85
2023-02-15T01:24:44.155Z,70.95
2023-02-15T01:25:42.940Z,71.15
2023-02-15T01:26:43.241Z,71.34
2023-02-15T01:27:43.499Z,71.34
2023-02-15T01:28:43.154Z,71.34
2023-02-15T01:29:42.963Z,71.25
2023-02-15T01:30:43.036Z,71.75
2023-02-15T01:31:43.685Z,72.17
2023-02-15T01:32:42.878Z,72.28
2023-02-15T01:33:44.111Z,72.38
2023-02-15T01:34:42.996Z,72.47
2023-02-15T01:35:42.798Z,72.77
2023-02-15T01:36:43.005Z,72.77
2023-02-15T01:37:42.775Z,72.77
2023-02-15T01:38:42.924Z,72.87
2023-02-15T01:39:42.719Z,73.17
2023-02-15T01:40:42.826Z,73.17
2023-02-15T01:41:42.667Z,73.17
2023-02-15T01:42:42.732Z,73.47
2023-02-15T01:43:42.684Z,73.67
2023-02-15T01:44:42.687Z,73.86
2023-02-15T01:45:42.750Z,74.16
2023-02-15T01:46:42.765Z,74.16
2023-02-15T01:47:42.660Z,74.40
2023-02-15T01:48:42.671Z,74.56
2023-02-15T01:49:42.636Z,74.66
2023-02-15T01:50:42.626Z,74.66
2023-02-15T01:51:42.656Z,74.86
2023-02-15T01:52:42.598Z,74.46
2023-02-15T01:53:42.599Z,74.37
2023-02-15T01:54:42.547Z,74.16
2023-02-15T01:55:42.557Z,74.50
2023-02-15T01:56:42.523Z,74.99
2023-02-15T01:57:42.562Z,75.33
2023-02-15T01:58:42.561Z,75.63
2023-02-15T01:59:42.541Z,75.53
2023-02-15T02:00:42.491Z,75.33
2023-02-15T02:01:42.547Z,75.29
2023-02-15T02:02:42.606Z,75.29
2023-02-15T02:03:43.431Z,75.10
2023-02-15T02:04:42.511Z,75.10
2023-02-15T02:05:42.443Z,74.99
2023-02-15T02:06:43.069Z,74.90
2023-02-15T02:07:42.322Z,74.90
2023-02-15T02:08:42.338Z,75.10
2023-02-15T02:09:41.373Z,75.49
2023-02-15T02:10:42.341Z,75.49
2023-02-15T02:11:43.068Z,75.40
2023-02-15T02:12:42.320Z,75.20
2023-02-15T02:13:42.354Z,75.10
2023-02-15T02:14:42.376Z,75.10
2023-02-15T02:15:42.360Z,74.76
2023-02-15T02:16:42.376Z,75.06
2023-02-15T02:17:42.289Z,74.86
2023-02-15T02:18:42.304Z,74.66
2023-02-15T02:19:42.199Z,74.37
2023-02-15T02:20:42.520Z,74.66
2023-02-15T02:21:42.220Z,74.69
2023-02-15T02:22:42.220Z,75.10
2023-02-15T02:23:42.224Z,75.20
2023-02-15T02:24:42.234Z,75.20
2023-02-15T02:25:42.234Z,74.90
2023-02-15T02:26:42.213Z,75.06
2023-02-15T02:27:42.242Z,75.16
2023-02-15T02:28:42.263Z,75.16
2023-02-15T02:29:42.194Z,74.76
2023-02-15T02:30:42.212Z,74.66
2023-02-15T02:31:42.287Z,74.16
2023-02-15T02:32:42.295Z,74.26
2023-02-15T02:33:42.203Z,74.07
2023-02-15T02:34:42.189Z,74.26
2023-02-15T02:35:42.206Z,74.46
2023-02-15T02:36:42.211Z,74.80
2023-02-15T02:37:42.121Z,74.99
2023-02-15T02:38:42.124Z,74.50
2023-02-15T02:39:42.745Z,75.20
2023-02-15T02:40:43.024Z,75.10
2023-02-15T02:41:42.044Z,75.43
2023-02-15T02:42:42.155Z,75.83
2023-02-15T02:43:42.052Z,75.93
2023-02-15T02:44:42.061Z,75.93
2023-02-15T02:45:42.071Z,76.03
2023-02-15T02:46:42.030Z,76.13
2023-02-15T02:47:41.982Z,76.23
2023-02-15T02:48:42.097Z,76.23
2023-02-15T02:49:42.507Z,75.83
2023-02-15T02:50:42.112Z,76.56
2023-02-15T02:51:42.022Z,75.96
2023-02-15T02:52:42.019Z,76.26
2023-02-15T02:53:42.066Z,76.20
2023-02-15T02:54:43.056Z,76.10
2023-02-15T02:55:41.977Z,76.60
2023-02-15T02:56:41.987Z,77.00
2023-02-15T02:57:41.952Z,76.50
2023-02-15T02:58:41.939Z,76.79
2023-02-15T02:59:41.965Z,76.50
2023-02-15T03:00:41.867Z,75.60
2023-02-15T03:01:41.931Z,76.10
2023-02-15T03:02:42.024Z,76.50
2023-02-15T03:03:41.899Z,77.16
2023-02-15T03:04:41.793Z,77.86
2023-02-15T03:05:42.113Z,79.15
2023-02-15T03:06:41.790Z,78.75
2023-02-15T03:07:41.810Z,78.59
2023-02-15T03:08:42.068Z,81.62
2023-02-15T03:09:41.865Z,83.01
2023-02-15T03:10:42.148Z,83.61
2023-02-15T03:11:44.457Z,83.11
2023-02-15T03:12:42.160Z,84.15
2023-02-15T03:13:43.122Z,84.45
2023-02-15T03:14:42.309Z,84.25
2023-02-15T03:15:41.914Z,84.55
2023-02-15T03:16:42.797Z,84.65
2023-02-15T03:17:44.802Z,85.00
2023-02-15T03:18:42.758Z,84.51
2023-02-15T03:19:41.889Z,84.91
2023-02-15T03:20:44.918Z,84.70
2023-02-15T03:21:41.655Z,84.70
2023-02-15T03:22:41.864Z,84.51
2023-02-15T03:23:41.668Z,84.81
2023-02-15T03:24:41.617Z,85.00
2023-02-15T03:25:41.673Z,85.00
2023-02-15T03:26:41.584Z,84.81
2023-02-15T03:27:41.582Z,84.91
2023-02-15T03:28:41.654Z,84.81
2023-02-15T03:29:41.552Z,84.51
2023-02-15T03:30:41.816Z,83.91
2023-02-15T03:31:41.793Z,84.21
2023-02-15T03:32:41.627Z,83.91
2023-02-15T03:33:41.729Z,84.51
2023-02-15T03:34:41.681Z,84.70
2023-02-15T03:35:43.537Z,84.91
2023-02-15T03:36:41.504Z,84.70
2023-02-15T03:37:41.718Z,84.91
2023-02-15T03:38:41.411Z,84.81
2023-02-15T05:53:59.607Z,84.70
2023-02-15T17:06:15.541Z,52.38
2023-02-15T17:07:15.708Z,52.18
2023-02-15T17:08:15.506Z,52.48
2023-02-15T17:09:16.212Z,53.36
2023-02-15T17:10:15.498Z,53.46
2023-02-15T17:11:15.376Z,53.27
2023-02-15T17:12:15.414Z,52.97
2023-02-15T17:13:15.364Z,52.67
2023-02-15T17:14:15.955Z,53.75
2023-02-15T17:15:16.567Z,54.74
2023-02-15T17:16:36.598Z,55.43
2023-02-15T17:17:15.434Z,54.14
2023-02-15T17:18:15.354Z,54.74
2023-02-15T17:19:15.325Z,52.87
2023-02-15T17:20:37.454Z,52.97
2023-02-15T17:21:15.315Z,54.05
2023-02-15T17:22:15.457Z,53.56
2023-02-15T17:23:16.125Z,53.85
2023-02-15T17:24:40.980Z,53.06
2023-02-15T17:25:17.727Z,53.19
2023-02-15T17:26:15.222Z,53.58
2023-02-15T17:27:15.283Z,54.27
2023-02-15T17:28:15.330Z,53.98
2023-02-15T17:29:15.291Z,54.47
2023-02-15T17:30:15.384Z,54.66
2023-02-15T17:31:15.343Z,53.98
2023-02-15T17:32:17.051Z,53.09
2023-02-15T17:33:16.115Z,53.58
2023-02-15T17:34:15.278Z,52.99
2023-02-15T17:35:15.265Z,52.70
2023-02-15T17:36:15.247Z,53.19
2023-02-15T17:37:27.377Z,53.68
2023-02-15T17:38:15.698Z,54.27
2023-02-15T17:39:15.160Z,54.08
2023-02-15T17:40:15.415Z,54.27
2023-02-15T17:41:15.347Z,54.17
2023-02-15T17:42:15.238Z,54.25
2023-02-15T17:43:15.734Z,54.05
2023-02-15T17:44:15.242Z,52.77
2023-02-15T17:45:15.983Z,54.05
2023-02-15T17:46:15.199Z,53.75
2023-02-15T17:47:15.206Z,53.46
2023-02-15T17:48:15.792Z,53.44
2023-02-15T17:49:15.067Z,52.84
2023-02-15T17:50:45.223Z,53.63
2023-02-15T17:52:50.342Z,52.55
2023-02-15T17:53:49.657Z,53.44
2023-02-15T17:54:43.682Z,53.92
2023-02-15T17:55:44.707Z,53.44
2023-02-15T17:56:43.801Z,53.04
2023-02-15T17:57:43.595Z,51.96
2023-02-15T17:58:43.598Z,52.72
2023-02-15T17:59:43.562Z,53.90
2023-02-15T18:00:43.708Z,52.92
2023-02-15T18:01:43.828Z,52.82
2023-02-15T18:02:43.530Z,53.31
2023-02-15T18:03:43.535Z,51.84
2023-02-15T18:04:44.399Z,51.47
2023-02-15T18:05:43.507Z,52.06
2023-02-15T18:06:43.561Z,53.44
2023-02-15T18:07:43.672Z,53.63
2023-02-15T18:08:53.712Z,53.23
2023-02-15T18:09:43.487Z,53.63
2023-02-15T18:10:43.639Z,54.12
2023-02-15T18:11:43.609Z,53.33
2023-02-15T18:12:43.558Z,51.76
2023-02-15T18:13:44.429Z,51.17
2023-02-15T18:14:43.416Z,51.89
2023-02-15T18:15:43.435Z,52.70
2023-02-15T18:16:43.658Z,52.80
2023-02-15T18:17:43.384Z,53.09
2023-02-15T18:18:43.543Z,54.27
2023-02-15T18:19:43.465Z,54.08
2023-02-15T18:20:43.568Z,55.06
2023-02-15T18:21:43.378Z,55.35
2023-02-15T18:22:43.441Z,54.96
2023-02-15T18:23:44.137Z,55.35
2023-02-15T18:24:43.380Z,52.33
2023-02-15T18:25:43.387Z,53.34
2023-02-15T18:26:43.398Z,53.36
2023-02-15T18:27:43.341Z,54.38
2023-02-15T18:28:43.295Z,53.59
2023-02-15T18:29:43.320Z,53.99
2023-02-15T18:30:43.388Z,53.52
2023-02-15T18:31:43.316Z,53.54
2023-02-15T18:32:43.226Z,53.84
2023-02-15T18:33:43.207Z,53.54
2023-02-15T18:34:43.214Z,53.77
2023-02-15T18:35:43.192Z,54.48
2023-02-15T18:36:43.270Z,55.07
2023-02-15T18:37:43.210Z,56.09
2023-02-15T18:38:43.202Z,56.98
2023-02-15T18:39:43.877Z,57.92
2023-02-15T18:40:43.176Z,58.81
2023-02-15T18:41:43.125Z,59.33
2023-02-15T18:42:43.158Z,61.41
2023-02-15T18:43:43.198Z,62.57
2023-02-15T18:45:04.095Z,63.89
2023-02-15T18:45:43.159Z,66.36
2023-02-15T18:46:43.113Z,67.77
2023-02-15T18:47:43.130Z,68.66
2023-02-15T18:48:43.028Z,69.75
2023-02-15T18:49:43.104Z,69.85
2023-02-15T18:50:43.009Z,71.14
2023-02-15T18:51:43.046Z,70.94
2023-02-15T18:53:04.192Z,71.34
2023-02-15T18:53:43.645Z,72.03
2023-02-15T18:54:42.966Z,71.23
2023-02-15T18:56:03.994Z,70.34
2023-02-15T18:56:43.864Z,70.54
2023-02-15T18:57:43.230Z,70.54
2023-02-15T18:59:03.982Z,71.04
2023-02-15T18:59:43.036Z,69.59
2023-02-15T19:00:42.930Z,70.91
2023-02-15T19:01:43.043Z,70.65
2023-02-15T19:03:03.917Z,70.75
2023-02-15T19:03:43.004Z,72.70
2023-02-15T19:04:42.932Z,74.48
2023-02-15T19:05:42.945Z,76.17
2023-02-15T19:06:42.847Z,75.67
2023-02-15T19:08:03.872Z,73.89
2023-02-15T19:08:42.860Z,73.19
2023-02-15T19:09:42.908Z,74.58
2023-02-15T19:10:42.897Z,71.74
2023-02-15T19:11:42.912Z,72.44
2023-02-15T19:12:42.827Z,74.85
2023-02-15T19:13:42.873Z,75.25
2023-02-15T19:14:42.885Z,75.01
2023-02-15T19:15:42.777Z,74.02
2023-02-15T19:16:42.945Z,74.62
2023-02-15T19:17:42.869Z,74.22
2023-02-15T19:18:42.756Z,73.99
2023-02-15T19:19:42.706Z,74.58
2023-02-15T19:20:42.774Z,74.08
2023-02-15T19:21:43.087Z,74.38
2023-02-15T19:22:43.554Z,73.10
2023-02-15T19:23:42.684Z,72.50
2023-02-15T19:24:42.700Z,71.91
2023-02-15T19:25:42.760Z,72.40
2023-02-15T19:26:45.685Z,73.29
2023-02-15T19:27:42.665Z,73.49
2023-02-15T19:28:42.936Z,73.99
2023-02-15T19:29:42.936Z,73.99
2023-02-15T19:30:42.899Z,72.10
2023-02-15T19:31:42.749Z,72.00
2023-02-15T19:32:42.654Z,70.75
2023-02-15T19:33:42.703Z,72.77
2023-02-15T19:34:42.587Z,72.31
2023-02-15T19:35:42.568Z,74.82
2023-02-15T19:36:42.585Z,75.62
2023-02-15T19:37:42.761Z,75.62
2023-02-15T19:38:42.526Z,75.88
2023-02-15T19:39:42.559Z,75.48
2023-02-15T19:40:42.525Z,75.18
2023-02-15T19:41:42.566Z,73.46
2023-02-15T19:42:42.551Z,73.76
2023-02-15T19:44:03.471Z,74.76
2023-02-15T19:44:42.678Z,74.55
2023-02-15T19:45:42.594Z,74.76
2023-02-15T19:46:42.522Z,74.52
2023-02-15T19:47:42.487Z,74.32
2023-02-15T19:48:42.458Z,74.02
2023-02-15T19:49:42.401Z,74.12
2023-02-15T19:50:43.390Z,74.02
2023-02-15T19:51:42.410Z,73.93
2023-02-15T19:52:42.416Z,73.29
2023-02-15T19:53:42.386Z,73.39
2023-02-15T19:55:03.387Z,71.81
2023-02-15T19:55:42.444Z,72.73
2023-02-15T19:56:42.342Z,73.72
2023-02-15T19:57:42.413Z,74.22
2023-02-15T19:59:03.452Z,74.62
2023-02-15T19:59:42.432Z,74.52
2023-02-15T20:00:42.328Z,74.32
2023-02-15T20:01:42.297Z,73.93
2023-02-15T20:02:42.344Z,74.22
2023-02-15T20:03:42.288Z,74.02
2023-02-15T20:04:43.949Z,73.49
2023-02-15T20:06:03.404Z,73.59
2023-02-15T20:06:42.239Z,73.69
2023-02-15T20:07:42.221Z,73.19
2023-02-15T20:08:42.503Z,73.00
2023-02-15T20:09:42.237Z,72.89
2023-02-15T20:10:42.704Z,72.76
2023-02-15T20:11:42.248Z,72.86
2023-02-15T20:12:42.732Z,72.66
2023-02-15T20:13:42.190Z,72.66
2023-02-15T20:14:42.281Z,72.66
2023-02-15T20:15:42.202Z,72.53
2023-02-15T20:16:42.158Z,72.43
2023-02-15T20:17:42.086Z,72.23
2023-02-15T20:18:42.082Z,72.03
2023-02-15T20:19:42.088Z,71.83
2023-02-15T20:20:42.221Z,71.64
2023-02-15T20:21:42.065Z,72.03
2023-02-15T20:22:42.071Z,72.13
2023-02-15T20:23:42.020Z,72.13
2023-02-15T20:24:42.024Z,72.33
2023-02-15T20:25:42.093Z,72.33
2023-02-15T20:26:42.109Z,72.33
2023-02-15T20:27:42.043Z,72.23
2023-02-15T20:28:42.046Z,71.34
2023-02-15T20:30:03.089Z,72.07
2023-02-15T20:30:41.980Z,72.86
2023-02-15T20:31:42.091Z,72.76
2023-02-15T20:32:42.157Z,72.66
2023-02-15T20:33:42.048Z,72.66
2023-02-15T20:34:42.073Z,73.06
2023-02-15T20:35:41.898Z,72.66
2023-02-15T20:36:41.916Z,72.36
2023-02-15T20:37:41.907Z,72.86
2023-02-15T20:38:41.875Z,72.76
2023-02-15T20:39:42.026Z,72.76
2023-02-15T20:40:41.822Z,72.66
2023-02-15T20:41:42.339Z,72.76
2023-02-15T20:42:42.674Z,72.66
2023-02-15T20:44:03.949Z,72.73
2023-02-15T20:44:41.781Z,72.83
2023-02-15T20:45:41.854Z,72.63
2023-02-15T20:46:42.032Z,72.53
2023-02-15T20:47:41.766Z,72.53
2023-02-15T20:48:42.074Z,72.83
2023-02-15T20:49:41.794Z,72.63
2023-02-15T20:50:41.755Z,72.73
2023-02-15T20:51:41.802Z,72.73
2023-02-15T20:52:41.723Z,72.43
2023-02-15T20:53:41.718Z,71.44
2023-02-15T20:54:41.812Z,71.73
2023-02-15T20:55:41.723Z,71.73
2023-02-15T20:56:41.736Z,71.83
2023-02-15T20:57:41.727Z,71.54
2023-02-15T20:58:41.750Z,71.54
2023-02-15T20:59:41.672Z,71.54
2023-02-15T21:00:41.655Z,71.64
2023-02-15T21:01:41.815Z,71.44
2023-02-15T21:02:41.629Z,71.34
2023-02-15T21:03:41.693Z,71.24
2023-02-15T21:04:41.954Z,71.24
2023-02-15T21:05:42.671Z,71.14
2023-02-15T21:06:41.612Z,71.44
2023-02-15T21:07:41.700Z,71.73
2023-02-15T21:08:42.418Z,71.83
2023-02-15T21:09:41.579Z,72.13
2023-02-15T21:10:41.524Z,72.03
2023-02-15T21:11:41.590Z,72.03
2023-02-15T21:12:41.537Z,71.83
2023-02-15T21:13:41.653Z,71.94
2023-02-15T21:14:41.540Z,71.94
2023-02-15T21:15:41.517Z,71.73
2023-02-15T21:16:41.468Z,71.73
2023-02-15T21:17:41.467Z,71.44
2023-02-15T21:18:41.471Z,71.54
2023-02-15T21:19:41.606Z,71.54
2023-02-15T21:20:41.452Z,71.83
2023-02-15T21:21:41.433Z,72.03
2023-02-15T21:22:41.461Z,71.83
2023-02-15T21:23:41.404Z,71.73
2023-02-15T21:24:41.396Z,72.47
2023-02-15T21:25:41.396Z,72.47
2023-02-15T21:26:41.406Z,72.47
2023-02-15T21:27:41.429Z,72.27
2023-02-15T21:28:41.369Z,71.87
2023-02-15T21:29:41.344Z,71.57
2023-02-15T21:30:41.384Z,71.87
2023-02-15T21:31:41.590Z,71.97
2023-02-15T21:32:41.402Z,71.77
2023-02-15T21:33:43.454Z,71.87
2023-02-15T21:34:41.420Z,71.57
2023-02-15T21:35:41.288Z,71.77
2023-02-15T21:36:41.329Z,71.47
2023-02-15T21:37:41.221Z,71.47
2023-02-15T21:38:41.240Z,71.67
2023-02-15T21:40:02.298Z,71.17
2023-02-15T21:40:41.218Z,70.68
2023-02-15T21:41:41.206Z,70.88
2023-02-15T21:42:41.230Z,71.08
2023-02-15T21:43:41.169Z,70.98
2023-02-15T21:44:41.177Z,71.17
2023-02-15T21:45:41.233Z,71.17
2023-02-15T21:46:41.247Z,70.38
2023-02-15T21:47:41.151Z,70.62
2023-02-15T21:48:41.167Z,70.62
2023-02-15T21:50:02.175Z,70.62
2023-02-15T21:50:41.167Z,70.62
2023-02-15T21:51:41.122Z,70.72
2023-02-15T21:52:41.286Z,70.81
2023-02-15T21:53:41.142Z,70.91
2023-02-15T21:54:41.207Z,71.21
2023-02-15T21:55:41.140Z,71.41
2023-02-15T21:56:41.062Z,71.51
2023-02-15T21:58:02.050Z,71.11
2023-02-15T21:58:41.077Z,71.11
2023-02-15T21:59:41.067Z,71.11
2023-02-15T22:00:41.106Z,70.62
2023-02-15T22:01:41.077Z,71.01
2023-02-15T22:02:41.043Z,70.81
2023-02-15T22:03:41.094Z,71.21
2023-02-15T22:04:40.997Z,71.11
2023-02-15T22:05:41.008Z,70.81
2023-02-15T22:06:41.009Z,70.22
2023-02-15T22:07:41.018Z,69.82
2023-02-15T22:08:41.197Z,69.82
2023-02-15T22:09:40.989Z,70.12
2023-02-15T22:10:40.933Z,69.92
2023-02-15T22:12:01.937Z,70.22
2023-02-15T22:12:40.947Z,69.79
2023-02-15T22:13:40.954Z,69.43
2023-02-15T22:14:40.959Z,69.53
2023-02-15T22:15:40.929Z,69.53
2023-02-15T22:16:40.967Z,69.82
2023-02-15T22:17:40.888Z,69.82
2023-02-15T22:18:40.987Z,69.82
2023-02-15T22:19:40.896Z,69.79
2023-02-15T22:20:40.937Z,69.79
2023-02-15T22:21:40.857Z,69.29
2023-02-15T22:22:40.825Z,69.59
2023-02-15T22:23:40.828Z,69.29
2023-02-15T22:24:40.787Z,69.29
2023-02-15T22:25:40.800Z,68.99
2023-02-15T22:26:40.900Z,69.29
2023-02-15T22:27:40.858Z,69.69
2023-02-15T22:28:40.798Z,69.69
2023-02-15T22:29:40.750Z,69.59
2023-02-15T22:30:40.717Z,69.79
2023-02-15T22:31:40.822Z,70.18
2023-02-15T22:32:40.709Z,69.98
2023-02-15T22:33:40.776Z,69.49
2023-02-15T22:34:40.802Z,69.79
2023-02-15T22:35:40.693Z,69.59
2023-02-15T22:36:40.661Z,69.79
2023-02-15T22:37:40.666Z,69.59
2023-02-15T22:38:40.670Z,69.69
2023-02-15T22:39:40.736Z,69.69
2023-02-15T22:40:40.634Z,69.49
2023-02-15T22:42:01.634Z,69.89
2023-02-15T22:42:40.571Z,70.09
2023-02-15T22:43:40.594Z,70.32
2023-02-15T22:44:40.606Z,70.91
2023-02-15T22:45:40.630Z,70.62
2023-02-15T22:46:40.567Z,70.72
2023-02-15T22:47:40.530Z,70.72
2023-02-15T22:48:40.534Z,71.25
2023-02-15T22:49:40.550Z,71.70
2023-02-15T22:53:18.198Z,71.77
2023-02-15T22:54:04.446Z,71.57
2023-02-15T22:55:04.414Z,71.17
2023-02-15T22:56:04.451Z,70.58
2023-02-15T22:57:04.425Z,70.68
2023-02-15T22:58:04.508Z,70.88
2023-02-15T22:59:04.461Z,70.88
2023-02-15T23:00:04.378Z,70.78
2023-02-15T23:01:04.824Z,70.68
2023-02-15T23:02:04.459Z,70.48
2023-02-15T23:03:20.829Z,70.38
2023-02-15T23:04:10.884Z,70.48
2023-02-15T23:05:16.199Z,70.58
2023-02-15T23:06:04.390Z,70.88
2023-02-15T23:07:04.904Z,71.11
2023-02-15T23:08:04.292Z,71.21
2023-02-15T23:09:04.308Z,71.11
2023-02-15T23:10:04.319Z,71.21
2023-02-15T23:11:04.532Z,71.51
2023-02-15T23:12:04.240Z,71.25
2023-02-15T23:13:04.239Z,71.44
2023-02-15T23:14:25.269Z,71.54
2023-02-15T23:15:04.361Z,71.84
2023-02-15T23:16:05.280Z,71.94
2023-02-15T23:17:04.461Z,72.04
2023-02-15T23:18:04.679Z,71.94
2023-02-15T23:19:04.540Z,71.64
2023-02-15T23:20:25.328Z,71.74
2023-02-15T23:21:04.852Z,71.34
2023-02-15T23:22:04.709Z,71.44
2023-02-15T23:23:04.475Z,71.44
2023-02-15T23:24:04.240Z,71.34
2023-02-15T23:25:05.946Z,70.85
2023-02-15T23:26:04.796Z,70.55
2023-02-15T23:27:04.425Z,70.45
2023-02-15T23:28:04.553Z,70.85
2023-02-15T23:29:04.462Z,70.95
2023-02-15T23:30:04.189Z,70.85
2023-02-15T23:31:05.772Z,71.44
2023-02-15T23:32:04.587Z,71.54
2023-02-15T23:33:04.360Z,70.45
2023-02-15T23:34:04.442Z,70.58
2023-02-15T23:35:04.188Z,70.98
2023-02-15T23:36:04.252Z,71.28
2023-02-15T23:37:04.097Z,71.28
2023-02-15T23:38:04.059Z,71.37
2023-02-15T23:39:04.094Z,71.48
2023-02-15T23:40:04.023Z,71.58
2023-02-15T23:41:04.377Z,71.67
2023-02-15T23:42:05.056Z,71.88
2023-02-15T23:43:03.947Z,71.97
2023-02-15T23:44:04.829Z,72.27
2023-02-15T23:45:25.036Z,72.47
2023-02-15T23:46:04.054Z,72.67
2023-02-15T23:47:03.922Z,72.57
2023-02-15T23:48:03.879Z,72.07
2023-02-15T23:49:03.882Z,72.11
2023-02-15T23:50:04.238Z,72.71
2023-02-15T23:51:04.240Z,72.60
2023-02-15T23:52:03.947Z,72.80
2023-02-15T23:53:03.851Z,73.00
2023-02-15T23:54:03.818Z,73.10
2023-02-15T23:55:03.819Z,73.10
2023-02-15T23:56:04.436Z,73.10
2023-02-15T23:57:03.891Z,72.71
2023-02-15T23:58:03.890Z,72.84
2023-02-15T23:59:03.797Z,73.03
